Time;durP1;ratioP1;P1;durP2;ratioP2;P2;SDS_P1;SDS_P2;PMS_P1;PMS_P2;Temp;Humidity;BMP_temperature;BMP_pressure;BME280_temperature;BME280_humidity;BME280_pressure;Samples;Min_cycle;Max_cycle;Signal;HPM_P1;HPM_P2
2021/06/05 00:00:34;;;;;;;4.93;3.80;;;21.10;91.40;;;;;;4956988;29;20047;-77
2021/06/05 00:03:02;;;;;;;6.72;3.30;;;21.10;91.40;;;;;;4974083;28;20042;-77
2021/06/05 00:05:31;;;;;;;4.72;2.70;;;21.10;91.50;;;;;;4973275;28;20102;-77
2021/06/05 00:07:57;;;;;;;4.78;3.42;;;21.10;91.40;;;;;;4958368;28;20061;-77
2021/06/05 00:10:32;;;;;;;4.40;3.17;;;21.10;91.50;;;;;;4958369;28;20039;-75
2021/06/05 00:12:58;;;;;;;3.53;3.10;;;21.00;91.50;;;;;;4973475;28;20054;-76
2021/06/05 00:15:32;;;;;;;4.57;2.53;;;21.00;91.50;;;;;;4958284;28;20046;-76
2021/06/05 00:17:58;;;;;;;4.65;2.67;;;21.00;91.40;;;;;;4958054;28;20801;-76
2021/06/05 00:20:28;;;;;;;3.13;2.67;;;21.00;91.40;;;;;;4957793;28;20042;-76
2021/06/05 00:22:54;;;;;;;3.28;2.17;;;21.00;91.30;;;;;;4957324;28;20121;-77
2021/06/05 00:25:21;;;;;;;3.30;2.40;;;21.00;91.30;;;;;;4958001;28;20226;-76
2021/06/05 00:27:46;;;;;;;3.63;2.47;;;21.10;91.40;;;;;;4958196;28;20154;-76
2021/06/05 00:30:12;;;;;;;2.78;2.47;;;21.10;91.30;;;;;;4957633;29;20185;-77
2021/06/05 00:32:38;;;;;;;3.42;2.50;;;21.10;91.30;;;;;;4957952;28;20039;-77
2021/06/05 00:35:05;;;;;;;2.33;1.98;;;21.10;91.20;;;;;;4958575;28;20114;-77
2021/06/05 00:37:31;;;;;;;3.38;2.55;;;21.10;91.20;;;;;;4957816;28;20047;-77
2021/06/05 00:39:56;;;;;;;2.67;2.15;;;21.20;91.20;;;;;;4957902;28;20046;-76
2021/06/05 00:42:22;;;;;;;2.58;2.10;;;21.20;91.10;;;;;;4958853;28;20055;-76
2021/06/05 00:44:47;;;;;;;2.63;2.25;;;21.10;91.10;;;;;;4957921;28;20390;-76
2021/06/05 00:47:13;;;;;;;3.85;2.65;;;21.20;91.10;;;;;;4960160;28;20035;-76
2021/06/05 00:49:38;;;;;;;2.70;2.13;;;21.20;91.10;;;;;;4957245;28;20043;-76
2021/06/05 00:52:05;;;;;;;2.95;2.08;;;21.20;91.10;;;;;;4957492;29;20065;-76
2021/06/05 00:54:32;;;;;;;2.40;2.20;;;21.20;91.10;;;;;;4956812;28;20039;-76
2021/06/05 00:57:01;;;;;;;2.58;2.13;;;21.20;91.10;;;;;;4957745;28;20608;-76
2021/06/05 00:59:27;;;;;;;2.70;2.28;;;21.20;91.20;;;;;;4957294;28;20043;-76
2021/06/05 01:01:53;;;;;;;3.45;2.80;;;21.20;91.20;;;;;;4972480;28;20395;-78
2021/06/05 01:04:19;;;;;;;2.60;2.17;;;21.20;91.20;;;;;;4956295;28;20039;-75
2021/06/05 01:06:59;;;;;;;4.28;3.05;;;21.20;91.20;;;;;;4956721;28;20045;-76
2021/06/05 01:09:34;;;;;;;2.75;2.22;;;21.20;91.10;;;;;;4972741;28;20054;-75
2021/06/05 01:12:20;;;;;;;4.55;2.53;;;21.20;91.00;;;;;;4956531;29;20069;-76
2021/06/05 01:14:51;;;;;;;2.92;2.65;;;21.20;91.00;;;;;;4953095;29;20129;-76
2021/06/05 01:17:39;;;;;;;2.92;2.35;;;21.20;91.10;;;;;;4956916;28;20050;-75
2021/06/05 01:20:23;;;;;;;5.03;2.30;;;21.20;91.20;;;;;;4956866;28;20137;-76
2021/06/05 01:23:13;;;;;;;3.53;2.47;;;21.20;91.30;;;;;;4953245;29;20031;-77
2021/06/05 01:26:01;;;;;;;3.70;1.98;;;21.10;91.40;;;;;;4947606;29;20126;-78
2021/06/05 01:28:48;;;;;;;2.75;2.15;;;21.20;91.70;;;;;;4956804;28;20046;-78
2021/06/05 01:31:19;;;;;;;4.45;2.78;;;21.10;92.00;;;;;;4956861;28;20039;-77
2021/06/05 01:33:45;;;;;;;3.70;2.55;;;21.10;92.00;;;;;;4953555;29;20422;-75
2021/06/05 01:36:13;;;;;;;4.43;2.92;;;21.10;92.10;;;;;;4956074;29;20050;-75
2021/06/05 01:38:47;;;;;;;3.38;2.60;;;21.10;92.20;;;;;;4971548;28;20493;-76
2021/06/05 01:41:14;;;;;;;3.88;2.55;;;21.00;92.30;;;;;;4956845;28;20129;-76
2021/06/05 01:43:41;;;;;;;4.45;2.60;;;21.00;92.30;;;;;;4971930;28;20398;-76
2021/06/05 01:46:08;;;;;;;3.42;3.13;;;21.00;92.40;;;;;;4956792;28;20163;-76
2021/06/05 01:48:34;;;;;;;3.92;2.38;;;21.00;92.40;;;;;;4957034;28;20031;-76
2021/06/05 01:51:09;;;;;;;3.30;2.78;;;21.00;92.40;;;;;;4960390;28;20042;-77
2021/06/05 01:53:40;;;;;;;2.72;2.50;;;21.00;92.40;;;;;;4976340;28;20311;-77
2021/06/05 01:56:38;;;;;;;3.53;2.75;;;21.00;92.50;;;;;;4961139;28;20046;-76
2021/06/05 01:59:13;;;;;;;4.22;2.70;;;21.00;92.40;;;;;;4958480;28;20043;-77
2021/06/05 02:01:39;;;;;;;3.63;2.42;;;20.90;92.60;;;;;;4971959;28;20310;-77
2021/06/05 02:04:06;;;;;;;3.90;2.80;;;20.90;92.60;;;;;;4960121;28;20043;-77
2021/06/05 02:06:32;;;;;;;2.63;2.42;;;20.90;92.70;;;;;;4960512;28;20035;-77
2021/06/05 02:08:57;;;;;;;3.38;2.20;;;20.80;92.70;;;;;;4960369;28;20750;-77
2021/06/05 02:11:26;;;;;;;2.88;2.53;;;20.80;92.80;;;;;;4959985;28;20042;-77
2021/06/05 02:14:09;;;;;;;3.90;2.10;;;20.80;92.90;;;;;;4960664;28;20725;-77
2021/06/05 02:16:47;;;;;;;2.85;2.53;;;20.80;92.90;;;;;;4975080;28;20051;-77
2021/06/05 02:19:27;;;;;;;3.78;2.88;;;20.70;93.00;;;;;;4974939;28;20039;-77
2021/06/05 02:21:57;;;;;;;3.53;2.47;;;20.70;92.90;;;;;;4975930;28;20050;-77
2021/06/05 02:24:26;;;;;;;4.55;2.80;;;20.60;93.20;;;;;;4962587;28;20043;-77
2021/06/05 02:26:52;;;;;;;3.03;2.67;;;20.60;93.30;;;;;;4959498;28;21670;-76
2021/06/05 02:29:23;;;;;;;5.28;3.38;;;20.60;93.40;;;;;;4956734;29;20130;-75
2021/06/05 02:31:48;;;;;;;5.63;3.15;;;20.60;93.40;;;;;;4958186;29;20318;-76
2021/06/05 02:34:20;;;;;;;4.90;3.55;;;20.50;93.50;;;;;;4958247;29;20147;-76
2021/06/05 02:36:49;;;;;;;3.67;3.35;;;20.60;93.60;;;;;;4975756;28;20063;-76
2021/06/05 02:39:18;;;;;;;5.45;3.92;;;20.50;93.60;;;;;;4960072;28;20295;-76
2021/06/05 02:41:46;;;;;;;6.88;3.33;;;20.50;93.60;;;;;;4959483;28;20066;-76
2021/06/05 02:44:14;;;;;;;5.65;4.05;;;20.50;93.70;;;;;;4975075;28;20403;-76
2021/06/05 02:46:40;;;;;;;4.60;3.75;;;20.50;94.00;;;;;;4956516;29;20398;-76
2021/06/05 02:49:18;;;;;;;4.28;3.30;;;20.50;93.80;;;;;;4958627;29;20047;-76
2021/06/05 02:51:46;;;;;;;4.40;3.15;;;20.50;93.90;;;;;;4959904;29;20043;-76
2021/06/05 02:54:12;;;;;;;8.05;3.17;;;20.40;93.90;;;;;;4959347;28;20042;-76
2021/06/05 02:56:37;;;;;;;4.22;3.83;;;20.40;93.90;;;;;;4959855;29;20039;-76
2021/06/05 02:59:03;;;;;;;4.65;3.60;;;20.40;94.00;;;;;;4959212;28;20027;-76
2021/06/05 03:01:29;;;;;;;4.03;3.63;;;20.40;94.10;;;;;;4958967;29;20054;-77
2021/06/05 03:03:55;;;;;;;3.72;3.20;;;20.40;94.10;;;;;;4959699;29;20533;-77
2021/06/05 03:06:20;;;;;;;5.32;3.85;;;20.30;94.20;;;;;;4959914;29;20062;-77
2021/06/05 03:08:47;;;;;;;5.13;4.10;;;20.30;94.30;;;;;;4959124;29;20039;-77
2021/06/05 03:11:17;;;;;;;4.90;4.07;;;20.30;94.30;;;;;;4959195;28;20047;-77
2021/06/05 03:13:43;;;;;;;4.18;3.70;;;20.30;94.30;;;;;;4959098;28;20114;-77
2021/06/05 03:16:11;;;;;;;6.80;4.10;;;20.30;94.20;;;;;;4959546;28;20151;-77
2021/06/05 03:18:37;;;;;;;3.83;3.45;;;20.30;94.30;;;;;;4974213;28;20063;-77
2021/06/05 03:21:06;;;;;;;4.90;3.63;;;20.20;94.40;;;;;;4959067;28;20178;-77
2021/06/05 03:23:32;;;;;;;6.15;3.45;;;20.20;94.40;;;;;;4958826;29;20421;-77
2021/06/05 03:25:59;;;;;;;5.00;4.30;;;20.20;94.40;;;;;;4973850;28;20040;-76
2021/06/05 03:28:29;;;;;;;5.68;4.22;;;20.20;94.50;;;;;;4958768;28;20403;-77
2021/06/05 03:30:55;;;;;;;5.28;4.10;;;20.20;94.50;;;;;;4974214;28;20047;-76
2021/06/05 03:33:22;;;;;;;4.00;3.40;;;20.20;94.60;;;;;;4958747;28;20062;-76
2021/06/05 03:35:48;;;;;;;5.13;4.00;;;20.20;94.60;;;;;;4955288;29;20057;-77
2021/06/05 03:38:14;;;;;;;4.68;4.22;;;20.10;94.50;;;;;;4956737;29;20101;-77
2021/06/05 03:40:40;;;;;;;4.47;3.90;;;20.10;94.50;;;;;;4958970;28;20050;-77
2021/06/05 03:43:07;;;;;;;4.80;4.13;;;20.10;94.50;;;;;;4960743;28;20445;-77
2021/06/05 03:45:32;;;;;;;5.85;4.50;;;20.10;94.80;;;;;;4960254;28;20079;-76
2021/06/05 03:48:00;;;;;;;6.10;4.80;;;20.10;94.60;;;;;;4973530;28;20039;-78
2021/06/05 03:50:29;;;;;;;10.32;4.75;;;20.10;94.70;;;;;;4952230;29;20062;-77
2021/06/05 03:52:55;;;;;;;4.85;4.30;;;20.00;94.70;;;;;;4958285;28;20485;-75
2021/06/05 03:55:21;;;;;;;4.82;4.03;;;20.00;94.80;;;;;;4958195;28;20039;-76
2021/06/05 03:57:47;;;;;;;7.25;4.40;;;20.10;94.90;;;;;;4957484;28;20051;-76
2021/06/05 04:00:20;;;;;;;5.60;4.03;;;20.10;94.90;;;;;;4973290;28;20405;-76
2021/06/05 04:02:46;;;;;;;6.63;4.88;;;20.10;94.90;;;;;;4972861;28;20069;-76
2021/06/05 04:05:12;;;;;;;7.88;4.75;;;20.10;95.00;;;;;;4964523;28;20047;-76
2021/06/05 04:07:38;;;;;;;5.95;4.80;;;20.10;95.00;;;;;;4954195;29;20050;-77
2021/06/05 04:10:05;;;;;;;5.80;4.47;;;20.10;95.10;;;;;;4957655;29;20377;-77
2021/06/05 04:12:31;;;;;;;6.80;4.40;;;20.10;95.10;;;;;;4973121;28;20039;-77
2021/06/05 04:14:56;;;;;;;5.95;4.78;;;20.20;95.10;;;;;;4958177;29;20046;-77
2021/06/05 04:17:22;;;;;;;6.93;4.78;;;20.20;95.20;;;;;;4958131;28;20047;-76
2021/06/05 04:19:49;;;;;;;5.47;4.40;;;20.20;95.20;;;;;;4957660;29;20035;-76
2021/06/05 04:22:15;;;;;;;8.38;4.53;;;20.20;95.00;;;;;;4957409;29;20317;-77
2021/06/05 04:24:40;;;;;;;5.85;4.65;;;20.20;94.90;;;;;;4957522;28;20039;-77
2021/06/05 04:27:08;;;;;;;5.50;4.60;;;20.30;94.90;;;;;;4953818;29;20116;-77
2021/06/05 04:29:34;;;;;;;8.45;5.07;;;20.40;94.90;;;;;;4961634;28;20039;-77
2021/06/05 04:32:00;;;;;;;6.85;4.63;;;20.40;94.90;;;;;;4954866;29;20431;-76
2021/06/05 04:34:26;;;;;;;5.75;4.35;;;20.40;94.80;;;;;;4957419;28;20129;-77
2021/06/05 04:36:52;;;;;;;5.30;4.72;;;20.50;94.70;;;;;;4957791;29;20285;-77
2021/06/05 04:39:19;;;;;;;5.25;4.47;;;20.50;94.60;;;;;;4957725;28;20039;-77
2021/06/05 04:41:45;;;;;;;5.97;3.78;;;20.60;94.40;;;;;;4968669;28;20043;-77
2021/06/05 04:44:11;;;;;;;5.05;3.50;;;20.70;94.20;;;;;;4957817;29;20035;-77
2021/06/05 04:46:37;;;;;;;6.15;4.53;;;20.70;93.80;;;;;;4957650;28;20035;-77
2021/06/05 04:49:03;;;;;;;6.38;3.95;;;20.80;93.70;;;;;;4957574;29;20035;-76
2021/06/05 04:51:30;;;;;;;5.10;3.85;;;20.80;93.40;;;;;;4963604;28;20093;-76
2021/06/05 04:53:56;;;;;;;8.82;4.50;;;20.90;93.20;;;;;;4957220;28;20039;-76
2021/06/05 04:56:30;;;;;;;4.68;3.70;;;20.90;93.10;;;;;;4957861;28;20122;-76
2021/06/05 04:58:56;;;;;;;5.65;4.10;;;21.00;92.80;;;;;;4957256;28;20425;-76
2021/06/05 05:01:21;;;;;;;4.82;3.25;;;21.10;92.70;;;;;;4957566;29;20109;-76
2021/06/05 05:03:46;;;;;;;6.00;3.78;;;21.10;92.70;;;;;;4958076;29;20046;-76
2021/06/05 05:06:12;;;;;;;3.97;3.22;;;21.20;92.80;;;;;;4959887;28;20038;-77
2021/06/05 05:08:38;;;;;;;6.65;3.80;;;21.30;92.50;;;;;;4960636;28;20639;-76
2021/06/05 05:11:04;;;;;;;4.78;3.88;;;21.40;92.50;;;;;;4957354;28;20646;-76
2021/06/05 05:13:32;;;;;;;4.97;3.80;;;21.50;92.40;;;;;;4957463;28;20043;-75
2021/06/05 05:15:58;;;;;;;5.90;4.25;;;21.60;92.20;;;;;;4957150;28;20113;-76
2021/06/05 05:18:24;;;;;;;4.18;3.63;;;21.70;92.30;;;;;;4956874;28;20035;-77
2021/06/05 05:20:51;;;;;;;4.65;3.25;;;21.80;92.40;;;;;;4957750;28;20097;-77
2021/06/05 05:23:18;;;;;;;5.32;3.83;;;21.90;91.70;;;;;;4959596;28;20302;-75
2021/06/05 05:25:44;;;;;;;3.50;3.03;;;22.00;91.30;;;;;;4959515;28;20054;-78
2021/06/05 05:28:14;;;;;;;3.58;2.75;;;22.10;90.80;;;;;;4957823;28;20035;-76
2021/06/05 05:30:47;;;;;;;3.45;3.15;;;22.20;90.20;;;;;;4972083;28;20047;-76
2021/06/05 05:33:13;;;;;;;4.50;3.00;;;22.30;90.50;;;;;;4950804;29;20148;-76
2021/06/05 05:35:38;;;;;;;3.95;2.53;;;22.40;90.60;;;;;;4956542;29;20075;-76
2021/06/05 05:38:06;;;;;;;4.63;3.35;;;22.40;90.20;;;;;;4956046;29;20092;-76
2021/06/05 05:40:34;;;;;;;4.22;2.75;;;22.50;90.00;;;;;;4957510;28;20186;-77
2021/06/05 05:42:59;;;;;;;3.90;3.00;;;22.60;89.50;;;;;;4955935;28;20074;-76
2021/06/05 05:45:25;;;;;;;7.53;3.50;;;22.60;89.10;;;;;;4971629;28;20121;-76
2021/06/05 05:47:51;;;;;;;4.97;2.25;;;22.70;88.30;;;;;;4955927;28;20291;-76
2021/06/05 05:50:19;;;;;;;2.83;1.88;;;22.70;88.20;;;;;;4955679;29;20047;-76
2021/06/05 05:52:44;;;;;;;4.22;2.88;;;22.80;87.60;;;;;;4955835;28;20047;-76
2021/06/05 05:55:11;;;;;;;3.47;2.60;;;22.80;88.00;;;;;;4955560;28;20306;-76
2021/06/05 05:57:37;;;;;;;2.75;2.35;;;22.80;87.80;;;;;;4964292;28;20047;-76
2021/06/05 06:00:11;;;;;;;4.10;2.63;;;22.90;87.30;;;;;;4953871;28;20060;-76
2021/06/05 06:02:36;;;;;;;2.92;2.50;;;22.90;87.60;;;;;;4954372;28;20138;-77
2021/06/05 06:05:02;;;;;;;3.90;2.58;;;22.90;86.60;;;;;;4952708;29;20130;-76
2021/06/05 06:07:28;;;;;;;5.32;2.85;;;23.00;87.40;;;;;;4962300;28;20315;-76
2021/06/05 06:09:53;;;;;;;3.92;2.90;;;22.90;87.90;;;;;;4955254;28;20063;-76
2021/06/05 06:12:20;;;;;;;2.72;2.20;;;23.00;87.60;;;;;;4955194;28;20548;-76
2021/06/05 06:14:45;;;;;;;4.68;2.40;;;23.10;86.30;;;;;;4961988;28;20058;-77
2021/06/05 06:17:11;;;;;;;2.97;2.67;;;23.20;86.30;;;;;;4969130;28;20325;-78
2021/06/05 06:19:36;;;;;;;4.13;2.00;;;23.20;86.20;;;;;;4955128;28;20047;-76
2021/06/05 06:22:02;;;;;;;4.65;2.75;;;23.20;87.30;;;;;;4954266;28;20414;-76
2021/06/05 06:24:28;;;;;;;7.13;3.20;;;23.20;88.00;;;;;;4951155;28;20051;-78
2021/06/05 06:26:54;;;;;;;3.50;2.40;;;23.30;87.20;;;;;;4955594;29;20102;-76
2021/06/05 06:29:27;;;;;;;3.95;2.67;;;23.30;87.50;;;;;;4970891;28;20035;-76
2021/06/05 06:31:52;;;;;;;4.57;2.58;;;23.40;86.70;;;;;;4954940;28;20039;-77
2021/06/05 06:34:18;;;;;;;3.63;2.78;;;23.50;86.10;;;;;;4954133;28;20070;-78
2021/06/05 06:36:44;;;;;;;3.42;3.13;;;23.50;85.10;;;;;;4958714;28;20138;-78
2021/06/05 06:39:10;;;;;;;4.70;2.80;;;23.60;85.80;;;;;;4959650;29;20039;-77
2021/06/05 06:41:37;;;;;;;4.68;2.78;;;23.60;85.80;;;;;;4974197;28;20035;-76
2021/06/05 06:44:05;;;;;;;3.50;2.53;;;23.60;85.70;;;;;;4958792;28;20039;-76
2021/06/05 06:46:36;;;;;;;4.50;2.88;;;23.80;85.20;;;;;;4969529;28;20040;-77
2021/06/05 06:49:03;;;;;;;5.38;3.05;;;23.80;85.80;;;;;;4973974;28;20046;-77
2021/06/05 06:51:29;;;;;;;4.32;2.50;;;23.80;85.80;;;;;;4957404;28;20043;-78
2021/06/05 06:53:55;;;;;;;3.38;3.08;;;23.90;85.10;;;;;;4957494;28;20399;-77
2021/06/05 06:56:21;;;;;;;4.30;2.60;;;23.90;84.50;;;;;;4958271;29;20043;-77
2021/06/05 06:58:48;;;;;;;2.92;2.40;;;24.00;84.00;;;;;;4959633;28;20310;-77
2021/06/05 07:01:13;;;;;;;3.58;2.22;;;24.10;84.10;;;;;;4959186;29;20430;-77
2021/06/05 07:03:39;;;;;;;6.22;2.70;;;24.10;83.90;;;;;;4974310;28;20046;-77
2021/06/05 07:06:06;;;;;;;2.35;2.15;;;24.20;83.50;;;;;;4975101;28;20043;-77
2021/06/05 07:08:36;;;;;;;3.80;2.63;;;24.20;83.90;;;;;;4958475;29;20054;-77
2021/06/05 07:11:05;;;;;;;2.78;2.15;;;24.30;83.90;;;;;;4958358;28;20038;-77
2021/06/05 07:13:31;;;;;;;3.83;2.55;;;24.40;86.00;;;;;;4958921;28;20142;-75
2021/06/05 07:15:58;;;;;;;3.88;2.55;;;24.50;84.10;;;;;;4956068;28;20114;-76
2021/06/05 07:18:27;;;;;;;3.40;2.47;;;24.60;84.00;;;;;;4973865;28;20415;-76
2021/06/05 07:20:53;;;;;;;2.80;2.00;;;24.70;82.50;;;;;;4959347;28;20058;-76
2021/06/05 07:23:21;;;;;;;3.85;2.50;;;24.70;82.70;;;;;;4958236;28;20114;-76
2021/06/05 07:25:47;;;;;;;2.90;2.60;;;24.90;82.50;;;;;;4958721;29;20031;-76
2021/06/05 07:28:29;;;;;;;3.47;2.60;;;24.90;82.90;;;;;;4957608;29;20058;-76
2021/06/05 07:30:55;;;;;;;6.63;2.35;;;25.10;82.80;;;;;;4958172;29;20054;-77
2021/06/05 07:33:22;;;;;;;3.33;2.17;;;25.30;80.70;;;;;;4973221;28;20051;-76
2021/06/05 07:35:49;;;;;;;2.20;1.95;;;25.50;78.90;;;;;;4959254;28;20113;-76
2021/06/05 07:38:16;;;;;;;3.10;2.13;;;25.60;79.40;;;;;;4959320;28;20058;-77
2021/06/05 07:40:44;;;;;;;2.55;2.28;;;25.60;80.50;;;;;;4958114;28;20139;-77
2021/06/05 07:43:11;;;;;;;2.55;1.73;;;25.70;79.20;;;;;;4958158;28;20058;-75
2021/06/05 07:45:36;;;;;;;4.65;1.77;;;25.80;78.20;;;;;;4957837;28;20126;-75
2021/06/05 07:48:02;;;;;;;3.05;2.08;;;25.80;81.10;;;;;;4973776;28;20123;-76
2021/06/05 07:50:28;;;;;;;3.08;2.25;;;26.00;79.30;;;;;;4958831;28;20051;-76
2021/06/05 07:52:53;;;;;;;3.55;2.10;;;26.00;78.80;;;;;;4958914;28;20055;-77
2021/06/05 07:55:19;;;;;;;5.05;2.40;;;26.10;77.80;;;;;;4957740;28;20039;-77
2021/06/05 07:57:45;;;;;;;3.17;1.90;;;26.10;79.40;;;;;;4957542;29;20118;-75
2021/06/05 08:00:16;;;;;;;2.20;1.70;;;26.20;78.80;;;;;;4958020;28;20130;-76
2021/06/05 08:02:41;;;;;;;3.67;2.03;;;26.30;77.90;;;;;;4958679;28;20046;-78
2021/06/05 08:05:08;;;;;;;2.17;1.80;;;26.30;77.40;;;;;;4939795;29;20047;-77
2021/06/05 08:07:34;;;;;;;5.28;1.88;;;26.30;79.20;;;;;;4962016;28;20043;-76
2021/06/05 08:09:59;;;;;;;5.20;2.00;;;26.40;78.70;;;;;;4961875;28;20047;-77
2021/06/05 08:12:25;;;;;;;2.42;1.80;;;26.40;77.80;;;;;;4960847;29;20066;-76
2021/06/05 08:14:52;;;;;;;2.15;1.95;;;26.40;77.30;;;;;;4952527;29;20125;-76
2021/06/05 08:17:17;;;;;;;2.47;1.70;;;26.50;79.40;;;;;;4959397;28;20143;-76
2021/06/05 08:19:43;;;;;;;3.85;2.33;;;26.60;78.20;;;;;;4958472;29;20496;-76
2021/06/05 08:22:10;;;;;;;3.17;2.08;;;26.70;76.90;;;;;;4959200;28;20034;-76
2021/06/05 08:24:35;;;;;;;3.33;1.88;;;26.70;77.10;;;;;;4957215;29;20050;-77
2021/06/05 08:27:01;;;;;;;3.05;2.20;;;26.80;77.00;;;;;;4958142;29;20541;-77
2021/06/05 08:29:26;;;;;;;4.07;1.67;;;26.90;76.10;;;;;;4958957;28;20053;-77
2021/06/05 08:31:52;;;;;;;4.95;2.10;;;27.00;76.60;;;;;;4957330;28;20047;-77
2021/06/05 08:34:19;;;;;;;3.08;2.50;;;27.10;78.20;;;;;;4957389;28;20062;-75
2021/06/05 08:36:45;;;;;;;2.20;1.77;;;27.20;76.20;;;;;;4957796;28;20070;-75
2021/06/05 08:39:13;;;;;;;3.60;2.10;;;27.20;76.80;;;;;;4956378;29;20611;-77
2021/06/05 08:41:50;;;;;;;3.38;1.77;;;27.20;77.60;;;;;;4957033;28;20165;-77
2021/06/05 08:44:36;;;;;;;2.45;1.83;;;27.20;75.10;;;;;;4973678;28;20043;-77
2021/06/05 08:47:32;;;;;;;3.97;2.58;;;27.30;75.90;;;;;;4951343;29;20315;-77
2021/06/05 08:50:01;;;;;;;2.33;1.80;;;27.30;74.70;;;;;;4949692;28;20077;-77
2021/06/05 08:52:41;;;;;;;3.35;2.10;;;27.30;75.10;;;;;;4958091;28;20134;-77
2021/06/05 08:55:18;;;;;;;2.58;1.85;;;27.40;76.50;;;;;;4957349;28;20054;-77
2021/06/05 08:57:54;;;;;;;3.25;2.15;;;27.40;75.30;;;;;;4956370;28;20110;-76
2021/06/05 09:00:26;;;;;;;5.22;2.15;;;27.40;73.70;;;;;;4957842;28;20035;-77
2021/06/05 09:02:57;;;;;;;3.70;2.13;;;27.40;76.70;;;;;;4957425;28;20042;-76
2021/06/05 09:05:29;;;;;;;2.58;2.17;;;27.40;75.90;;;;;;4956946;29;20402;-76
2021/06/05 09:07:56;;;;;;;2.95;1.85;;;27.40;74.50;;;;;;4957910;28;20319;-76
2021/06/05 09:10:23;;;;;;;2.20;2.00;;;27.40;75.10;;;;;;4956800;29;20425;-77
2021/06/05 09:12:49;;;;;;;4.82;2.08;;;27.40;75.40;;;;;;4955853;29;20106;-76
2021/06/05 09:15:30;;;;;;;3.15;1.58;;;27.40;74.90;;;;;;4956657;28;20449;-76
2021/06/05 09:17:59;;;;;;;2.85;1.98;;;27.40;73.30;;;;;;4960709;28;20039;-77
2021/06/05 09:20:38;;;;;;;2.60;1.52;;;27.40;74.10;;;;;;4957045;29;20129;-76
2021/06/05 09:23:26;;;;;;;4.30;1.98;;;27.40;72.10;;;;;;4971375;28;20043;-76
2021/06/05 09:25:53;;;;;;;2.05;1.85;;;27.40;71.70;;;;;;4957475;28;20043;-77
2021/06/05 09:28:22;;;;;;;4.57;2.28;;;27.30;71.80;;;;;;4972936;28;20035;-75
2021/06/05 09:30:50;;;;;;;2.58;2.03;;;27.30;74.10;;;;;;4952910;29;20387;-75
2021/06/05 09:33:34;;;;;;;3.38;2.35;;;27.40;73.10;;;;;;4953982;29;20422;-73
2021/06/05 09:36:18;;;;;;;2.15;1.95;;;27.50;71.70;;;;;;4950439;29;20094;-74
2021/06/05 09:39:07;;;;;;;3.10;2.47;;;27.60;72.40;;;;;;4956136;28;20039;-74
2021/06/05 09:41:35;;;;;;;3.55;2.10;;;27.60;72.40;;;;;;4957245;28;20138;-74
2021/06/05 09:44:13;;;;;;;4.68;2.40;;;27.70;69.30;;;;;;4956347;29;20043;-74
2021/06/05 09:46:51;;;;;;;3.65;2.50;;;27.80;68.60;;;;;;4954493;28;20106;-74
2021/06/05 09:49:25;;;;;;;7.13;2.22;;;27.90;67.10;;;;;;4957073;28;20034;-74
2021/06/05 09:52:07;;;;;;;3.88;2.50;;;28.00;67.50;;;;;;4956889;29;20102;-74
2021/06/05 09:54:46;;;;;;;;;;;28.10;69.10;;;;;;4956946;29;20298;-74
2021/06/05 09:57:30;;;;;;;3.22;2.50;;;28.20;68.00;;;;;;4955884;28;19910;-75
2021/06/05 10:00:32;;;;;;;2.58;2.25;;;28.30;68.30;;;;;;4955670;28;20047;-76
2021/06/05 10:03:19;;;;;;;2.75;2.35;;;28.30;70.90;;;;;;4954657;28;20043;-74
2021/06/05 10:05:48;;;;;;;2.55;2.13;;;28.50;68.60;;;;;;4955711;29;20359;-76
2021/06/05 10:08:24;;;;;;;7.10;2.00;;;28.60;69.70;;;;;;4957247;28;20031;-75
2021/06/05 10:11:06;;;;;;;3.03;1.73;;;28.50;66.80;;;;;;4958179;29;20047;-75
2021/06/05 10:13:37;;;;;;;3.00;2.47;;;28.40;68.00;;;;;;4959781;28;20376;-79
2021/06/05 10:16:09;;;;;;;2.60;2.38;;;28.40;70.90;;;;;;4959310;28;20053;-76
2021/06/05 10:18:58;;;;;;;4.63;1.80;;;28.40;69.90;;;;;;4958327;29;20066;-77
2021/06/05 10:21:36;;;;;;;2.05;1.75;;;28.50;68.90;;;;;;4959375;29;20138;-77
2021/06/05 10:24:21;;;;;;;4.40;2.58;;;28.60;70.60;;;;;;4960564;29;20070;-76
2021/06/05 10:26:48;;;;;;;2.80;1.75;;;28.60;68.50;;;;;;4959475;29;20036;-76
2021/06/05 10:29:24;;;;;;;4.97;2.03;;;28.70;67.60;;;;;;4958307;28;20126;-75
2021/06/05 10:31:51;;;;;;;3.75;2.28;;;28.70;68.20;;;;;;4975344;28;20343;-75
2021/06/05 10:34:50;;;;;;;2.65;2.08;;;28.60;66.60;;;;;;4959184;28;20126;-80
2021/06/05 10:37:23;;;;;;;7.95;2.50;;;28.60;66.30;;;;;;4975400;28;20043;-76
2021/06/05 10:39:51;;;;;;;5.30;2.08;;;28.70;67.70;;;;;;4975208;28;20311;-78
2021/06/05 10:42:29;;;;;;;2.50;2.13;;;28.70;64.70;;;;;;4959921;28;20050;-76
2021/06/05 10:44:55;;;;;;;2.70;1.92;;;28.80;65.80;;;;;;4958420;29;20043;-76
2021/06/05 10:47:39;;;;;;;2.85;1.92;;;28.80;65.00;;;;;;4959942;29;20422;-76
2021/06/05 10:50:36;;;;;;;4.13;2.55;;;28.80;63.00;;;;;;4959699;28;20445;-76
2021/06/05 10:53:20;;;;;;;2.60;2.00;;;28.70;64.90;;;;;;4960324;29;20039;-76
2021/06/05 10:55:50;;;;;;;1.95;1.70;;;28.60;65.30;;;;;;4957837;29;20050;-76
2021/06/05 10:58:40;;;;;;;4.00;2.17;;;28.60;66.00;;;;;;4959649;28;20068;-75
2021/06/05 11:01:31;;;;;;;4.18;2.25;;;28.60;65.90;;;;;;4958969;28;20458;-76
2021/06/05 11:04:05;;;;;;;3.97;2.30;;;28.50;67.20;;;;;;4953458;29;20465;-77
2021/06/05 11:06:46;;;;;;;2.60;2.20;;;28.50;65.60;;;;;;4972827;28;20070;-76
2021/06/05 11:09:29;;;;;;;3.63;2.10;;;28.40;65.10;;;;;;4957342;29;20074;-76
2021/06/05 11:11:59;;;;;;;5.57;2.65;;;28.30;66.80;;;;;;4958397;28;20039;-76
2021/06/05 11:14:44;;;;;;;2.22;2.00;;;28.20;65.90;;;;;;4958819;28;20090;-75
2021/06/05 11:17:19;;;;;;;4.45;2.45;;;28.20;67.00;;;;;;4956475;29;20051;-75
2021/06/05 11:19:54;;;;;;;2.65;2.30;;;28.30;67.40;;;;;;4956769;28;20075;-76
2021/06/05 11:22:27;;;;;;;3.55;2.20;;;28.50;66.10;;;;;;4957435;28;20054;-75
2021/06/05 11:25:07;;;;;;;4.70;2.10;;;28.70;65.70;;;;;;4956644;28;20589;-76
2021/06/05 11:27:38;;;;;;;3.78;2.40;;;29.00;65.50;;;;;;4957062;28;20047;-76
2021/06/05 11:30:21;;;;;;;5.13;2.60;;;29.20;67.50;;;;;;4957102;29;20178;-76
2021/06/05 11:32:52;;;;;;;3.03;2.17;;;29.10;65.00;;;;;;4956364;29;20059;-76
2021/06/05 11:35:57;;;;;;;3.70;2.33;;;29.30;65.30;;;;;;4957757;28;20046;-77
2021/06/05 11:38:23;;;;;;;4.88;2.45;;;29.40;65.00;;;;;;4967987;28;20039;-77
2021/06/05 11:41:06;;;;;;;3.25;2.40;;;29.50;67.60;;;;;;4957472;29;20043;-77
2021/06/05 11:43:32;;;;;;;2.97;2.10;;;29.60;64.60;;;;;;4956366;28;20121;-76
2021/06/05 11:46:10;;;;;;;3.65;2.55;;;29.80;65.20;;;;;;4956457;29;20406;-77
2021/06/05 11:48:37;;;;;;;4.72;2.58;;;29.90;64.80;;;;;;4956042;29;20400;-76
2021/06/05 11:51:21;;;;;;;3.20;2.22;;;30.00;66.90;;;;;;4958016;28;20315;-77
2021/06/05 11:53:55;;;;;;;3.55;2.22;;;30.30;66.20;;;;;;4956656;29;20452;-77
2021/06/05 11:56:33;;;;;;;3.25;2.65;;;30.40;62.80;;;;;;4973194;28;20039;-81
2021/06/05 11:59:21;;;;;;;2.70;2.47;;;30.40;64.60;;;;;;4974175;28;20415;-82
2021/06/05 12:01:47;;;;;;;3.13;2.60;;;30.50;63.10;;;;;;4957025;29;20051;-82
2021/06/05 12:04:18;;;;;;;3.17;2.67;;;30.50;63.00;;;;;;4958299;28;20724;-81
2021/06/05 12:06:46;;;;;;;3.22;2.58;;;30.60;63.40;;;;;;4956975;28;20051;-80
2021/06/05 12:09:15;;;;;;;3.00;2.67;;;30.60;60.60;;;;;;4978453;28;20036;-80
2021/06/05 12:11:51;;;;;;;4.88;2.60;;;30.70;60.40;;;;;;4956833;28;20122;-78
2021/06/05 12:14:36;;;;;;;4.90;2.47;;;30.70;59.80;;;;;;4952197;29;20043;-84
2021/06/05 12:17:05;;;;;;;4.43;2.78;;;30.80;61.20;;;;;;4942494;29;20050;-78
2021/06/05 12:19:33;;;;;;;3.50;2.75;;;30.80;62.00;;;;;;4956193;29;20098;-83
2021/06/05 12:22:12;;;;;;;2.80;2.47;;;31.00;61.20;;;;;;4957205;28;20043;-82
2021/06/05 12:24:39;;;;;;;2.80;2.50;;;31.00;59.40;;;;;;4947898;29;20446;-82
2021/06/05 12:27:05;;;;;;;4.03;2.63;;;30.90;59.60;;;;;;4972634;28;20043;-77
2021/06/05 12:29:35;;;;;;;4.60;2.50;;;30.70;60.80;;;;;;4956855;28;20031;-80
2021/06/05 12:32:28;;;;;;;3.15;2.85;;;30.70;59.60;;;;;;4956177;28;20118;-78
2021/06/05 12:34:54;;;;;;;3.72;2.42;;;30.70;58.70;;;;;;4957291;29;20092;-79
2021/06/05 12:37:32;;;;;;;2.97;2.67;;;30.60;59.70;;;;;;4957962;28;20556;-81
2021/06/05 12:40:00;;;;;;;2.67;2.30;;;30.80;58.20;;;;;;4956742;29;20109;-81
2021/06/05 12:42:35;;;;;;;4.13;2.78;;;30.80;60.00;;;;;;4957594;29;20035;-80
2021/06/05 12:45:11;;;;;;;4.35;2.90;;;30.80;62.10;;;;;;4958825;28;20035;-79
2021/06/05 12:47:42;;;;;;;6.30;2.20;;;30.90;61.10;;;;;;4961455;28;20035;-80
2021/06/05 12:50:15;;;;;;;3.42;2.80;;;31.00;59.80;;;;;;4974813;28;20062;-79
2021/06/05 12:52:46;;;;;;;2.97;2.72;;;31.00;61.20;;;;;;4964659;28;20053;-78
2021/06/05 12:55:44;;;;;;;4.38;2.90;;;31.10;61.10;;;;;;4956264;28;20128;-78
2021/06/05 12:58:12;;;;;;;10.35;2.88;;;31.20;59.50;;;;;;4950676;29;20035;-78
2021/06/05 13:00:49;;;;;;;4.28;2.70;;;31.30;58.60;;;;;;4956580;28;20663;-80
2021/06/05 13:03:15;;;;;;;3.10;2.80;;;31.40;60.10;;;;;;4943463;29;20054;-78
2021/06/05 13:06:05;;;;;;;4.78;2.75;;;31.50;60.60;;;;;;4956581;28;20043;-80